sensor_id;sensor_type;location;lat;lon;timestamp;pressure;altitude;pressure_sealevel;temperature;humidity
20043;BME280;10182;52.896;6.496;2023-04-29T00:03:15;101244.72;;;8.28;100.00
20043;BME280;10182;52.896;6.496;2023-04-29T00:08:19;101244.66;;;8.31;100.00
20043;BME280;10182;52.896;6.496;2023-04-29T00:13:22;101246.47;;;8.29;100.00
20043;BME280;10182;52.896;6.496;2023-04-29T00:18:23;101249.25;;;8.24;100.00
20043;BME280;10182;52.896;6.496;2023-04-29T00:23:26;101253.66;;;8.24;100.00
20043;BME280;10182;52.896;6.496;2023-04-29T00:28:28;101256.28;;;8.24;100.00
20043;BME280;10182;52.896;6.496;2023-04-29T00:33:30;101259.16;;;8.16;100.00
20043;BME280;10182;52.896;6.496;2023-04-29T00:38:33;101270.56;;;8.17;100.00
20043;BME280;10182;52.896;6.496;2023-04-29T00:43:35;101275.00;;;8.14;100.00
20043;BME280;10182;52.896;6.496;2023-04-29T00:48:37;101278.34;;;8.21;100.00
20043;BME280;10182;52.896;6.496;2023-04-29T00:53:40;101280.97;;;8.21;100.00
20043;BME280;10182;52.896;6.496;2023-04-29T00:58:42;101300.44;;;8.17;100.00
20043;BME280;10182;52.896;6.496;2023-04-29T01:03:49;101301.34;;;8.18;100.00
20043;BME280;10182;52.896;6.496;2023-04-29T01:09:05;101311.66;;;8.27;100.00
20043;BME280;10182;52.896;6.496;2023-04-29T01:14:11;101322.34;;;8.21;100.00
20043;BME280;10182;52.896;6.496;2023-04-29T01:19:19;101327.72;;;8.18;100.00
20043;BME280;10182;52.896;6.496;2023-04-29T01:24:29;101329.53;;;8.16;100.00
20043;BME280;10182;52.896;6.496;2023-04-29T01:29:37;101333.09;;;8.13;100.00
20043;BME280;10182;52.896;6.496;2023-04-29T01:34:43;101345.44;;;8.12;100.00
20043;BME280;10182;52.896;6.496;2023-04-29T01:39:56;101355.16;;;8.10;100.00
20043;BME280;10182;52.896;6.496;2023-04-29T01:45:05;101362.22;;;8.10;100.00
20043;BME280;10182;52.896;6.496;2023-04-29T01:50:08;101372.81;;;8.08;100.00
20043;BME280;10182;52.896;6.496;2023-04-29T01:55:11;101365.91;;;8.04;100.00
20043;BME280;10182;52.896;6.496;2023-04-29T02:00:13;101373.91;;;8.01;100.00
20043;BME280;10182;52.896;6.496;2023-04-29T02:05:14;101380.84;;;8.05;100.00
20043;BME280;10182;52.896;6.496;2023-04-29T02:10:17;101383.50;;;8.04;100.00
20043;BME280;10182;52.896;6.496;2023-04-29T02:15:19;101399.41;;;8.01;100.00
20043;BME280;10182;52.896;6.496;2023-04-29T02:20:21;101396.91;;;7.96;100.00
20043;BME280;10182;52.896;6.496;2023-04-29T02:25:24;101406.69;;;7.91;100.00
20043;BME280;10182;52.896;6.496;2023-04-29T02:30:46;101426.03;;;7.91;100.00
20043;BME280;10182;52.896;6.496;2023-04-29T02:35:47;101440.88;;;7.95;100.00
20043;BME280;10182;52.896;6.496;2023-04-29T02:40:50;101438.22;;;7.97;100.00
20043;BME280;10182;52.896;6.496;2023-04-29T02:45:52;101439.22;;;7.91;100.00
20043;BME280;10182;52.896;6.496;2023-04-29T02:50:54;101447.91;;;7.95;100.00
20043;BME280;10182;52.896;6.496;2023-04-29T02:55:57;101463.69;;;7.96;100.00
20043;BME280;10182;52.896;6.496;2023-04-29T03:00:58;101467.19;;;7.99;100.00
20043;BME280;10182;52.896;6.496;2023-04-29T03:06:00;101462.03;;;7.92;100.00
20043;BME280;10182;52.896;6.496;2023-04-29T03:11:04;101466.63;;;7.84;100.00
20043;BME280;10182;52.896;6.496;2023-04-29T03:16:06;101471.13;;;7.81;100.00
20043;BME280;10182;52.896;6.496;2023-04-29T03:21:08;101479.78;;;7.86;100.00
20043;BME280;10182;52.896;6.496;2023-04-29T03:26:11;101492.97;;;7.86;100.00
20043;BME280;10182;52.896;6.496;2023-04-29T03:31:13;101500.16;;;7.79;100.00
20043;BME280;10182;52.896;6.496;2023-04-29T03:36:15;101504.75;;;7.71;100.00
20043;BME280;10182;52.896;6.496;2023-04-29T03:41:18;101504.16;;;7.58;100.00
20043;BME280;10182;52.896;6.496;2023-04-29T03:46:20;101509.50;;;7.55;100.00
20043;BME280;10182;52.896;6.496;2023-04-29T03:51:22;101519.28;;;7.50;100.00
20043;BME280;10182;52.896;6.496;2023-04-29T03:56:25;101520.94;;;7.54;100.00
20043;BME280;10182;52.896;6.496;2023-04-29T04:01:27;101529.03;;;7.44;100.00
20043;BME280;10182;52.896;6.496;2023-04-29T04:06:29;101537.72;;;7.50;100.00
20043;BME280;10182;52.896;6.496;2023-04-29T04:11:32;101541.38;;;7.44;100.00
20043;BME280;10182;52.896;6.496;2023-04-29T04:16:35;101546.53;;;7.49;100.00
20043;BME280;10182;52.896;6.496;2023-04-29T04:21:37;101549.09;;;7.53;100.00
20043;BME280;10182;52.896;6.496;2023-04-29T04:26:40;101558.81;;;7.50;100.00
20043;BME280;10182;52.896;6.496;2023-04-29T04:31:42;101560.59;;;7.49;100.00
20043;BME280;10182;52.896;6.496;2023-04-29T04:36:44;101571.09;;;7.51;100.00
20043;BME280;10182;52.896;6.496;2023-04-29T04:41:47;101579.78;;;7.56;100.00
20043;BME280;10182;52.896;6.496;2023-04-29T04:46:49;101579.75;;;7.57;100.00
20043;BME280;10182;52.896;6.496;2023-04-29T04:51:51;101585.84;;;7.59;100.00
20043;BME280;10182;52.896;6.496;2023-04-29T04:56:54;101594.50;;;7.66;100.00
20043;BME280;10182;52.896;6.496;2023-04-29T05:01:56;101607.69;;;7.66;100.00
20043;BME280;10182;52.896;6.496;2023-04-29T05:06:58;101600.59;;;7.70;100.00
20043;BME280;10182;52.896;6.496;2023-04-29T05:12:01;101612.97;;;7.66;100.00
20043;BME280;10182;52.896;6.496;2023-04-29T05:17:02;101611.84;;;7.78;100.00
20043;BME280;10182;52.896;6.496;2023-04-29T05:22:04;101625.19;;;7.70;100.00
20043;BME280;10182;52.896;6.496;2023-04-29T05:27:08;101612.63;;;7.82;100.00
20043;BME280;10182;52.896;6.496;2023-04-29T05:32:09;101624.13;;;7.79;100.00
20043;BME280;10182;52.896;6.496;2023-04-29T05:37:12;101623.19;;;7.82;100.00
20043;BME280;10182;52.896;6.496;2023-04-29T05:42:15;101635.44;;;7.84;100.00
20043;BME280;10182;52.896;6.496;2023-04-29T05:47:17;101640.66;;;7.89;100.00
20043;BME280;10182;52.896;6.496;2023-04-29T05:52:19;101643.13;;;7.95;100.00
20043;BME280;10182;52.896;6.496;2023-04-29T05:57:22;101654.59;;;7.94;100.00
20043;BME280;10182;52.896;6.496;2023-04-29T06:02:24;101655.25;;;8.05;100.00
20043;BME280;10182;52.896;6.496;2023-04-29T06:07:25;101649.97;;;8.05;100.00
20043;BME280;10182;52.896;6.496;2023-04-29T06:12:29;101670.91;;;8.13;100.00
20043;BME280;10182;52.896;6.496;2023-04-29T06:17:31;101663.72;;;8.20;100.00
20043;BME280;10182;52.896;6.496;2023-04-29T06:22:32;101671.47;;;8.27;100.00
20043;BME280;10182;52.896;6.496;2023-04-29T06:27:35;101686.34;;;8.32;100.00
20043;BME280;10182;52.896;6.496;2023-04-29T06:32:37;101690.47;;;8.45;100.00
20043;BME280;10182;52.896;6.496;2023-04-29T06:37:39;101699.94;;;8.54;100.00
20043;BME280;10182;52.896;6.496;2023-04-29T06:42:42;101699.66;;;8.66;100.00
20043;BME280;10182;52.896;6.496;2023-04-29T06:47:44;101696.81;;;8.75;100.00
20043;BME280;10182;52.896;6.496;2023-04-29T06:52:45;101708.97;;;8.83;100.00
20043;BME280;10182;52.896;6.496;2023-04-29T06:57:49;101711.34;;;8.93;100.00
20043;BME280;10182;52.896;6.496;2023-04-29T07:02:51;101721.81;;;8.98;100.00
20043;BME280;10182;52.896;6.496;2023-04-29T07:07:53;101731.34;;;9.05;100.00
20043;BME280;10182;52.896;6.496;2023-04-29T07:12:56;101732.50;;;9.29;100.00
20043;BME280;10182;52.896;6.496;2023-04-29T07:17:59;101734.34;;;9.26;100.00
20043;BME280;10182;52.896;6.496;2023-04-29T07:23:01;101736.34;;;9.51;100.00
20043;BME280;10182;52.896;6.496;2023-04-29T07:28:05;101740.69;;;9.53;100.00
20043;BME280;10182;52.896;6.496;2023-04-29T07:33:07;101744.19;;;9.54;100.00
20043;BME280;10182;52.896;6.496;2023-04-29T07:38:09;101743.75;;;9.71;100.00
20043;BME280;10182;52.896;6.496;2023-04-29T07:43:13;101756.53;;;9.88;100.00
20043;BME280;10182;52.896;6.496;2023-04-29T07:48:15;101757.31;;;9.91;100.00
20043;BME280;10182;52.896;6.496;2023-04-29T07:53:16;101773.00;;;10.29;100.00
20043;BME280;10182;52.896;6.496;2023-04-29T07:58:19;101776.84;;;10.50;100.00
20043;BME280;10182;52.896;6.496;2023-04-29T08:03:21;101780.72;;;10.68;100.00
20043;BME280;10182;52.896;6.496;2023-04-29T08:08:23;101773.44;;;10.75;100.00
20043;BME280;10182;52.896;6.496;2023-04-29T08:13:26;101777.63;;;10.82;100.00
20043;BME280;10182;52.896;6.496;2023-04-29T08:18:27;101786.59;;;11.06;100.00
20043;BME280;10182;52.896;6.496;2023-04-29T08:23:29;101789.50;;;10.98;100.00
20043;BME280;10182;52.896;6.496;2023-04-29T08:28:32;101794.56;;;11.06;100.00
20043;BME280;10182;52.896;6.496;2023-04-29T08:33:34;101789.66;;;11.21;100.00
20043;BME280;10182;52.896;6.496;2023-04-29T08:38:36;101796.59;;;11.25;100.00
20043;BME280;10182;52.896;6.496;2023-04-29T08:43:39;101810.75;;;10.97;100.00
20043;BME280;10182;52.896;6.496;2023-04-29T08:48:41;101821.31;;;10.69;100.00
20043;BME280;10182;52.896;6.496;2023-04-29T08:53:43;101834.13;;;11.12;100.00
20043;BME280;10182;52.896;6.496;2023-04-29T08:58:48;101832.47;;;11.37;100.00
20043;BME280;10182;52.896;6.496;2023-04-29T09:04:01;101837.94;;;11.59;100.00
20043;BME280;10182;52.896;6.496;2023-04-29T09:09:05;101836.19;;;11.84;100.00
20043;BME280;10182;52.896;6.496;2023-04-29T09:14:08;101834.38;;;12.12;100.00
20043;BME280;10182;52.896;6.496;2023-04-29T09:19:10;101843.09;;;11.63;100.00
20043;BME280;10182;52.896;6.496;2023-04-29T09:24:24;101841.34;;;11.89;100.00
20043;BME280;10182;52.896;6.496;2023-04-29T09:29:27;101845.66;;;12.18;100.00
20043;BME280;10182;52.896;6.496;2023-04-29T09:34:33;101855.06;;;12.27;100.00
20043;BME280;10182;52.896;6.496;2023-04-29T09:39:38;101843.72;;;12.47;100.00
20043;BME280;10182;52.896;6.496;2023-04-29T09:44:42;101844.69;;;12.45;100.00
20043;BME280;10182;52.896;6.496;2023-04-29T09:49:44;101854.16;;;12.03;100.00
20043;BME280;10182;52.896;6.496;2023-04-29T09:54:46;101859.09;;;11.87;100.00
20043;BME280;10182;52.896;6.496;2023-04-29T09:59:49;101869.22;;;12.02;100.00
20043;BME280;10182;52.896;6.496;2023-04-29T10:04:53;101867.06;;;12.14;100.00
20043;BME280;10182;52.896;6.496;2023-04-29T10:09:56;101872.09;;;11.96;100.00
20043;BME280;10182;52.896;6.496;2023-04-29T10:15:02;101865.38;;;12.11;100.00
20043;BME280;10182;52.896;6.496;2023-04-29T10:20:05;101869.50;;;12.44;100.00
20043;BME280;10182;52.896;6.496;2023-04-29T10:25:09;101870.09;;;12.52;100.00
20043;BME280;10182;52.896;6.496;2023-04-29T10:30:14;101879.09;;;12.49;100.00
20043;BME280;10182;52.896;6.496;2023-04-29T10:35:18;101877.69;;;12.86;100.00
20043;BME280;10182;52.896;6.496;2023-04-29T10:40:27;101877.00;;;12.58;100.00
20043;BME280;10182;52.896;6.496;2023-04-29T10:45:33;101880.28;;;12.88;100.00
20043;BME280;10182;52.896;6.496;2023-04-29T10:50:43;101876.25;;;12.54;100.00
20043;BME280;10182;52.896;6.496;2023-04-29T10:56:05;101884.28;;;12.76;100.00
20043;BME280;10182;52.896;6.496;2023-04-29T11:01:12;101878.41;;;12.90;100.00
20043;BME280;10182;52.896;6.496;2023-04-29T11:06:15;101879.13;;;12.95;100.00
20043;BME280;10182;52.896;6.496;2023-04-29T11:11:16;101881.63;;;13.00;100.00
20043;BME280;10182;52.896;6.496;2023-04-29T11:16:25;101870.56;;;13.33;100.00
20043;BME280;10182;52.896;6.496;2023-04-29T11:21:28;101871.63;;;13.29;100.00
20043;BME280;10182;52.896;6.496;2023-04-29T11:26:30;101885.38;;;13.40;100.00
20043;BME280;10182;52.896;6.496;2023-04-29T11:31:33;101882.66;;;13.42;100.00
20043;BME280;10182;52.896;6.496;2023-04-29T11:36:36;101885.13;;;13.68;100.00
20043;BME280;10182;52.896;6.496;2023-04-29T11:41:37;101881.78;;;13.63;100.00
20043;BME280;10182;52.896;6.496;2023-04-29T11:46:41;101886.97;;;13.66;100.00
20043;BME280;10182;52.896;6.496;2023-04-29T11:51:43;101886.28;;;13.61;100.00
20043;BME280;10182;52.896;6.496;2023-04-29T11:56:45;101884.69;;;13.79;100.00
20043;BME280;10182;52.896;6.496;2023-04-29T12:01:50;101892.78;;;13.76;100.00
20043;BME280;10182;52.896;6.496;2023-04-29T12:06:52;101898.50;;;13.67;100.00
20043;BME280;10182;52.896;6.496;2023-04-29T12:11:54;101898.78;;;13.81;100.00
20043;BME280;10182;52.896;6.496;2023-04-29T12:16:57;101917.78;;;13.72;100.00
20043;BME280;10182;52.896;6.496;2023-04-29T12:21:59;101903.81;;;13.67;100.00
20043;BME280;10182;52.896;6.496;2023-04-29T12:27:06;101916.72;;;13.76;100.00
20043;BME280;10182;52.896;6.496;2023-04-29T12:32:15;101906.66;;;13.62;100.00
20043;BME280;10182;52.896;6.496;2023-04-29T12:37:17;101916.59;;;13.59;100.00
20043;BME280;10182;52.896;6.496;2023-04-29T12:42:19;101919.72;;;13.46;100.00
20043;BME280;10182;52.896;6.496;2023-04-29T12:47:22;101909.31;;;13.62;100.00
20043;BME280;10182;52.896;6.496;2023-04-29T12:52:24;101914.47;;;13.67;100.00
20043;BME280;10182;52.896;6.496;2023-04-29T12:57:27;101912.31;;;13.54;100.00
20043;BME280;10182;52.896;6.496;2023-04-29T13:02:30;101916.66;;;13.78;100.00
20043;BME280;10182;52.896;6.496;2023-04-29T13:07:31;101918.03;;;13.88;100.00
20043;BME280;10182;52.896;6.496;2023-04-29T13:12:35;101925.25;;;13.86;100.00
20043;BME280;10182;52.896;6.496;2023-04-29T13:17:38;101935.38;;;13.98;100.00
20043;BME280;10182;52.896;6.496;2023-04-29T13:22:40;101930.03;;;13.98;100.00
20043;BME280;10182;52.896;6.496;2023-04-29T13:27:42;101937.22;;;13.96;100.00
20043;BME280;10182;52.896;6.496;2023-04-29T13:32:46;101934.19;;;13.61;100.00
20043;BME280;10182;52.896;6.496;2023-04-29T13:37:47;101939.28;;;13.67;100.00
20043;BME280;10182;52.896;6.496;2023-04-29T13:42:49;101940.09;;;13.69;100.00
20043;BME280;10182;52.896;6.496;2023-04-29T13:47:52;101928.28;;;13.77;100.00
20043;BME280;10182;52.896;6.496;2023-04-29T13:53:01;101949.81;;;13.48;95.45
20043;BME280;10182;52.896;6.496;2023-04-29T13:58:03;101943.63;;;13.48;91.00
20043;BME280;10182;52.896;6.496;2023-04-29T14:03:06;101948.34;;;13.63;81.69
20043;BME280;10182;52.896;6.496;2023-04-29T14:08:08;101961.94;;;14.00;100.00
20043;BME280;10182;52.896;6.496;2023-04-29T14:13:09;101956.59;;;13.78;100.00
20043;BME280;10182;52.896;6.496;2023-04-29T14:18:12;101950.31;;;13.58;100.00
20043;BME280;10182;52.896;6.496;2023-04-29T14:23:14;101961.50;;;13.88;100.00
20043;BME280;10182;52.896;6.496;2023-04-29T14:28:16;101967.78;;;13.87;100.00
20043;BME280;10182;52.896;6.496;2023-04-29T14:33:19;101974.00;;;14.09;100.00
20043;BME280;10182;52.896;6.496;2023-04-29T14:38:21;101981.16;;;13.86;100.00
20043;BME280;10182;52.896;6.496;2023-04-29T14:43:22;101990.38;;;13.77;100.00
20043;BME280;10182;52.896;6.496;2023-04-29T14:48:25;101988.81;;;13.71;100.00
20043;BME280;10182;52.896;6.496;2023-04-29T14:53:28;101991.34;;;13.75;100.00
20043;BME280;10182;52.896;6.496;2023-04-29T14:58:29;101995.91;;;13.73;100.00
20043;BME280;10182;52.896;6.496;2023-04-29T15:03:32;101993.16;;;13.74;100.00
20043;BME280;10182;52.896;6.496;2023-04-29T15:08:34;102003.81;;;13.74;100.00
20043;BME280;10182;52.896;6.496;2023-04-29T15:13:37;102009.72;;;13.35;100.00
20043;BME280;10182;52.896;6.496;2023-04-29T15:18:40;102013.31;;;13.35;100.00
20043;BME280;10182;52.896;6.496;2023-04-29T15:23:42;102015.53;;;13.46;100.00
20043;BME280;10182;52.896;6.496;2023-04-29T15:28:44;102003.81;;;13.52;100.00
20043;BME280;10182;52.896;6.496;2023-04-29T15:33:47;102027.66;;;13.30;100.00
20043;BME280;10182;52.896;6.496;2023-04-29T15:38:49;102024.66;;;13.15;100.00
20043;BME280;10182;52.896;6.496;2023-04-29T15:43:51;102028.44;;;12.84;100.00
20043;BME280;10182;52.896;6.496;2023-04-29T15:48:54;102036.41;;;12.84;100.00
20043;BME280;10182;52.896;6.496;2023-04-29T15:53:55;102041.53;;;12.39;100.00
20043;BME280;10182;52.896;6.496;2023-04-29T15:58:57;102041.72;;;12.32;100.00
20043;BME280;10182;52.896;6.496;2023-04-29T16:04:00;102039.50;;;12.20;100.00
20043;BME280;10182;52.896;6.496;2023-04-29T16:09:02;102047.56;;;12.17;100.00
20043;BME280;10182;52.896;6.496;2023-04-29T16:14:04;102042.16;;;12.20;100.00
20043;BME280;10182;52.896;6.496;2023-04-29T16:19:07;102050.66;;;12.30;100.00
20043;BME280;10182;52.896;6.496;2023-04-29T16:24:09;102053.91;;;12.13;100.00
20043;BME280;10182;52.896;6.496;2023-04-29T16:29:10;102057.91;;;12.26;100.00
20043;BME280;10182;52.896;6.496;2023-04-29T16:34:14;102058.97;;;12.21;100.00
20043;BME280;10182;52.896;6.496;2023-04-29T16:39:15;102069.22;;;12.05;100.00
20043;BME280;10182;52.896;6.496;2023-04-29T16:44:17;102062.16;;;12.04;100.00
20043;BME280;10182;52.896;6.496;2023-04-29T16:49:23;102061.66;;;11.91;100.00
20043;BME280;10182;52.896;6.496;2023-04-29T16:54:25;102071.00;;;11.74;100.00
20043;BME280;10182;52.896;6.496;2023-04-29T16:59:28;102073.34;;;11.83;100.00
20043;BME280;10182;52.896;6.496;2023-04-29T17:04:31;102073.56;;;11.47;100.00
20043;BME280;10182;52.896;6.496;2023-04-29T17:09:32;102078.66;;;11.55;100.00
20043;BME280;10182;52.896;6.496;2023-04-29T17:14:34;102090.44;;;11.45;100.00
20043;BME280;10182;52.896;6.496;2023-04-29T17:19:37;102098.09;;;11.24;100.00
20043;BME280;10182;52.896;6.496;2023-04-29T17:24:39;102105.34;;;11.17;100.00
20043;BME280;10182;52.896;6.496;2023-04-29T17:29:44;102109.03;;;11.12;100.00
20043;BME280;10182;52.896;6.496;2023-04-29T17:34:47;102110.84;;;11.10;100.00
20043;BME280;10182;52.896;6.496;2023-04-29T17:39:48;102102.09;;;11.08;100.00
20043;BME280;10182;52.896;6.496;2023-04-29T17:44:50;102104.16;;;10.96;100.00
20043;BME280;10182;52.896;6.496;2023-04-29T17:49:53;102107.38;;;10.75;100.00
20043;BME280;10182;52.896;6.496;2023-04-29T17:54:55;102107.56;;;10.67;100.00
20043;BME280;10182;52.896;6.496;2023-04-29T17:59:57;102114.00;;;10.57;100.00
20043;BME280;10182;52.896;6.496;2023-04-29T18:05:00;102118.69;;;10.45;100.00
20043;BME280;10182;52.896;6.496;2023-04-29T18:10:02;102116.78;;;10.11;100.00
20043;BME280;10182;52.896;6.496;2023-04-29T18:15:06;102126.19;;;10.25;100.00
20043;BME280;10182;52.896;6.496;2023-04-29T18:20:11;102120.44;;;10.06;100.00
20043;BME280;10182;52.896;6.496;2023-04-29T18:25:13;102121.88;;;10.21;100.00
20043;BME280;10182;52.896;6.496;2023-04-29T18:30:15;102137.97;;;10.11;100.00
20043;BME280;10182;52.896;6.496;2023-04-29T18:35:18;102134.56;;;10.06;100.00
20043;BME280;10182;52.896;6.496;2023-04-29T18:40:20;102140.97;;;9.96;100.00
20043;BME280;10182;52.896;6.496;2023-04-29T18:45:22;102149.91;;;9.90;100.00
20043;BME280;10182;52.896;6.496;2023-04-29T18:50:25;102158.94;;;9.80;100.00
20043;BME280;10182;52.896;6.496;2023-04-29T18:55:27;102160.22;;;9.60;100.00
20043;BME280;10182;52.896;6.496;2023-04-29T19:00:30;102171.06;;;9.48;100.00
20043;BME280;10182;52.896;6.496;2023-04-29T19:05:33;102175.53;;;9.44;100.00
20043;BME280;10182;52.896;6.496;2023-04-29T19:10:34;102181.03;;;9.32;100.00
20043;BME280;10182;52.896;6.496;2023-04-29T19:15:36;102181.00;;;9.35;100.00
20043;BME280;10182;52.896;6.496;2023-04-29T19:20:40;102179.22;;;9.36;100.00
20043;BME280;10182;52.896;6.496;2023-04-29T19:25:42;102178.56;;;9.24;100.00
20043;BME280;10182;52.896;6.496;2023-04-29T19:30:44;102183.75;;;9.29;100.00
20043;BME280;10182;52.896;6.496;2023-04-29T19:35:47;102183.69;;;9.34;100.00
20043;BME280;10182;52.896;6.496;2023-04-29T19:40:48;102189.84;;;9.34;100.00
20043;BME280;10182;52.896;6.496;2023-04-29T19:45:50;102189.66;;;9.43;100.00
20043;BME280;10182;52.896;6.496;2023-04-29T19:50:53;102193.13;;;9.45;100.00
20043;BME280;10182;52.896;6.496;2023-04-29T19:55:59;102200.94;;;9.53;100.00
20043;BME280;10182;52.896;6.496;2023-04-29T20:01:00;102197.50;;;9.48;100.00
20043;BME280;10182;52.896;6.496;2023-04-29T20:06:04;102201.16;;;9.41;100.00
20043;BME280;10182;52.896;6.496;2023-04-29T20:11:06;102190.53;;;9.44;100.00
20043;BME280;10182;52.896;6.496;2023-04-29T20:16:07;102196.13;;;9.28;100.00
20043;BME280;10182;52.896;6.496;2023-04-29T20:21:11;102200.53;;;9.26;100.00
20043;BME280;10182;52.896;6.496;2023-04-29T20:26:13;102215.47;;;9.29;100.00
20043;BME280;10182;52.896;6.496;2023-04-29T20:31:15;102219.19;;;9.19;100.00
20043;BME280;10182;52.896;6.496;2023-04-29T20:36:18;102221.00;;;9.17;100.00
20043;BME280;10182;52.896;6.496;2023-04-29T20:41:20;102219.19;;;9.17;100.00
20043;BME280;10182;52.896;6.496;2023-04-29T20:46:22;102224.69;;;9.05;100.00
20043;BME280;10182;52.896;6.496;2023-04-29T20:51:25;102222.13;;;9.02;100.00
20043;BME280;10182;52.896;6.496;2023-04-29T20:56:27;102219.41;;;9.05;100.00
20043;BME280;10182;52.896;6.496;2023-04-29T21:01:28;102220.38;;;9.01;100.00
20043;BME280;10182;52.896;6.496;2023-04-29T21:06:32;102225.94;;;8.84;100.00
20043;BME280;10182;52.896;6.496;2023-04-29T21:11:36;102230.34;;;8.81;100.00
20043;BME280;10182;52.896;6.496;2023-04-29T21:16:37;102234.91;;;8.72;100.00
20043;BME280;10182;52.896;6.496;2023-04-29T21:21:41;102235.88;;;8.66;100.00
20043;BME280;10182;52.896;6.496;2023-04-29T21:26:43;102240.50;;;8.52;100.00
20043;BME280;10182;52.896;6.496;2023-04-29T21:31:45;102240.59;;;8.42;100.00
20043;BME280;10182;52.896;6.496;2023-04-29T21:36:48;102250.41;;;8.33;100.00
20043;BME280;10182;52.896;6.496;2023-04-29T21:41:50;102253.19;;;8.22;100.00
20043;BME280;10182;52.896;6.496;2023-04-29T21:46:51;102252.50;;;8.06;100.00
20043;BME280;10182;52.896;6.496;2023-04-29T21:51:55;102258.78;;;7.95;100.00
20043;BME280;10182;52.896;6.496;2023-04-29T21:56:57;102258.03;;;7.84;100.00
20043;BME280;10182;52.896;6.496;2023-04-29T22:01:58;102265.97;;;7.81;100.00
20043;BME280;10182;52.896;6.496;2023-04-29T22:07:02;102273.06;;;7.76;100.00
20043;BME280;10182;52.896;6.496;2023-04-29T22:12:04;102278.38;;;7.73;100.00
20043;BME280;10182;52.896;6.496;2023-04-29T22:17:05;102279.22;;;7.78;100.00
20043;BME280;10182;52.896;6.496;2023-04-29T22:22:09;102288.00;;;7.78;100.00
20043;BME280;10182;52.896;6.496;2023-04-29T22:27:10;102280.13;;;7.75;100.00
20043;BME280;10182;52.896;6.496;2023-04-29T22:32:12;102285.31;;;7.80;100.00
20043;BME280;10182;52.896;6.496;2023-04-29T22:37:15;102286.34;;;7.70;100.00
20043;BME280;10182;52.896;6.496;2023-04-29T22:42:17;102285.50;;;7.65;100.00
20043;BME280;10182;52.896;6.496;2023-04-29T22:47:19;102274.16;;;7.56;100.00
20043;BME280;10182;52.896;6.496;2023-04-29T22:52:22;102271.66;;;7.38;100.00
20043;BME280;10182;52.896;6.496;2023-04-29T22:57:25;102284.06;;;7.26;100.00
20043;BME280;10182;52.896;6.496;2023-04-29T23:02:26;102280.66;;;7.17;100.00
20043;BME280;10182;52.896;6.496;2023-04-29T23:07:30;102283.38;;;7.06;100.00
20043;BME280;10182;52.896;6.496;2023-04-29T23:12:31;102304.47;;;7.03;100.00
20043;BME280;10182;52.896;6.496;2023-04-29T23:17:33;102314.16;;;6.99;100.00
20043;BME280;10182;52.896;6.496;2023-04-29T23:22:38;102304.53;;;6.92;100.00
20043;BME280;10182;52.896;6.496;2023-04-29T23:27:39;102308.97;;;6.85;100.00
20043;BME280;10182;52.896;6.496;2023-04-29T23:32:41;102315.16;;;6.76;100.00
20043;BME280;10182;52.896;6.496;2023-04-29T23:37:44;102317.84;;;6.64;100.00
20043;BME280;10182;52.896;6.496;2023-04-29T23:42:46;102324.97;;;6.50;100.00
20043;BME280;10182;52.896;6.496;2023-04-29T23:47:48;102317.97;;;6.44;100.00
20043;BME280;10182;52.896;6.496;2023-04-29T23:52:51;102323.28;;;6.33;100.00
20043;BME280;10182;52.896;6.496;2023-04-29T23:57:52;102319.78;;;6.22;100.00
